sensor_id;sensor_type;location;lat;lon;timestamp;temperature;humidity
33994;DHT22;20673;48.980;8.138;2024-02-21T00:01:08;7.50;99.90
33994;DHT22;20673;48.980;8.138;2024-02-21T00:03:42;7.50;99.90
33994;DHT22;20673;48.980;8.138;2024-02-21T00:06:08;7.50;99.90
33994;DHT22;20673;48.980;8.138;2024-02-21T00:08:35;7.60;99.90
33994;DHT22;20673;48.980;8.138;2024-02-21T00:11:01;7.70;99.90
33994;DHT22;20673;48.980;8.138;2024-02-21T00:13:27;7.70;99.90
33994;DHT22;20673;48.980;8.138;2024-02-21T00:15:53;7.80;99.90
33994;DHT22;20673;48.980;8.138;2024-02-21T00:18:19;7.70;99.90
33994;DHT22;20673;48.980;8.138;2024-02-21T00:20:45;7.80;99.90
33994;DHT22;20673;48.980;8.138;2024-02-21T00:23:11;7.70;99.90
33994;DHT22;20673;48.980;8.138;2024-02-21T00:25:37;7.80;99.90
33994;DHT22;20673;48.980;8.138;2024-02-21T00:28:04;7.80;99.90
33994;DHT22;20673;48.980;8.138;2024-02-21T00:30:31;7.90;99.90
33994;DHT22;20673;48.980;8.138;2024-02-21T00:32:57;7.80;99.90
33994;DHT22;20673;48.980;8.138;2024-02-21T00:35:24;7.80;99.90
33994;DHT22;20673;48.980;8.138;2024-02-21T00:37:51;7.80;99.90
33994;DHT22;20673;48.980;8.138;2024-02-21T00:40:18;7.80;99.90
33994;DHT22;20673;48.980;8.138;2024-02-21T00:42:46;7.80;99.90
33994;DHT22;20673;48.980;8.138;2024-02-21T00:45:13;7.70;99.90
33994;DHT22;20673;48.980;8.138;2024-02-21T00:47:39;7.70;99.90
33994;DHT22;20673;48.980;8.138;2024-02-21T00:50:06;7.60;99.90
33994;DHT22;20673;48.980;8.138;2024-02-21T00:52:33;7.60;99.90
33994;DHT22;20673;48.980;8.138;2024-02-21T00:54:59;7.60;99.90
33994;DHT22;20673;48.980;8.138;2024-02-21T00:57:26;7.60;99.90
33994;DHT22;20673;48.980;8.138;2024-02-21T00:59:52;7.50;99.90
33994;DHT22;20673;48.980;8.138;2024-02-21T01:02:18;7.50;99.90
33994;DHT22;20673;48.980;8.138;2024-02-21T01:04:44;7.40;99.90
33994;DHT22;20673;48.980;8.138;2024-02-21T01:07:11;7.50;99.90
33994;DHT22;20673;48.980;8.138;2024-02-21T01:09:37;7.50;99.90
33994;DHT22;20673;48.980;8.138;2024-02-21T01:12:03;7.50;99.90
33994;DHT22;20673;48.980;8.138;2024-02-21T01:14:29;7.50;99.90
33994;DHT22;20673;48.980;8.138;2024-02-21T01:16:56;7.60;99.90
33994;DHT22;20673;48.980;8.138;2024-02-21T01:19:22;7.50;99.90
33994;DHT22;20673;48.980;8.138;2024-02-21T01:21:48;7.50;99.90
33994;DHT22;20673;48.980;8.138;2024-02-21T01:24:14;7.60;99.90
33994;DHT22;20673;48.980;8.138;2024-02-21T01:26:40;7.50;99.90
33994;DHT22;20673;48.980;8.138;2024-02-21T01:29:06;7.50;99.90
33994;DHT22;20673;48.980;8.138;2024-02-21T01:31:32;7.50;99.90
33994;DHT22;20673;48.980;8.138;2024-02-21T01:33:58;7.50;99.90
33994;DHT22;20673;48.980;8.138;2024-02-21T01:36:25;7.50;99.90
33994;DHT22;20673;48.980;8.138;2024-02-21T01:38:51;7.50;99.90
33994;DHT22;20673;48.980;8.138;2024-02-21T01:41:17;7.60;99.90
33994;DHT22;20673;48.980;8.138;2024-02-21T01:43:43;7.60;99.90
33994;DHT22;20673;48.980;8.138;2024-02-21T01:46:09;7.60;99.90
33994;DHT22;20673;48.980;8.138;2024-02-21T01:48:35;7.60;99.90
33994;DHT22;20673;48.980;8.138;2024-02-21T01:51:02;7.60;99.90
33994;DHT22;20673;48.980;8.138;2024-02-21T01:53:36;7.50;99.90
33994;DHT22;20673;48.980;8.138;2024-02-21T01:56:05;7.50;99.90
33994;DHT22;20673;48.980;8.138;2024-02-21T01:58:33;7.50;99.90
33994;DHT22;20673;48.980;8.138;2024-02-21T02:01:03;7.50;99.90
33994;DHT22;20673;48.980;8.138;2024-02-21T02:03:29;7.50;99.90
33994;DHT22;20673;48.980;8.138;2024-02-21T02:05:56;7.40;99.90
33994;DHT22;20673;48.980;8.138;2024-02-21T02:08:23;7.30;99.90
33994;DHT22;20673;48.980;8.138;2024-02-21T02:10:49;7.30;99.90
33994;DHT22;20673;48.980;8.138;2024-02-21T02:13:16;7.30;99.90
33994;DHT22;20673;48.980;8.138;2024-02-21T02:15:46;7.30;99.90
33994;DHT22;20673;48.980;8.138;2024-02-21T02:18:15;7.30;99.90
33994;DHT22;20673;48.980;8.138;2024-02-21T02:20:43;7.20;99.90
33994;DHT22;20673;48.980;8.138;2024-02-21T02:23:24;7.20;99.90
33994;DHT22;20673;48.980;8.138;2024-02-21T02:25:53;7.30;99.90
33994;DHT22;20673;48.980;8.138;2024-02-21T02:28:20;7.20;99.90
33994;DHT22;20673;48.980;8.138;2024-02-21T02:30:47;7.20;99.90
33994;DHT22;20673;48.980;8.138;2024-02-21T02:33:13;7.20;99.90
33994;DHT22;20673;48.980;8.138;2024-02-21T02:35:40;7.20;99.90
33994;DHT22;20673;48.980;8.138;2024-02-21T02:38:06;7.20;99.90
33994;DHT22;20673;48.980;8.138;2024-02-21T02:40:33;7.10;99.90
33994;DHT22;20673;48.980;8.138;2024-02-21T02:43:00;7.20;99.90
33994;DHT22;20673;48.980;8.138;2024-02-21T02:45:27;7.10;99.90
33994;DHT22;20673;48.980;8.138;2024-02-21T02:47:53;7.20;99.90
33994;DHT22;20673;48.980;8.138;2024-02-21T02:50:20;7.10;99.90
33994;DHT22;20673;48.980;8.138;2024-02-21T02:52:46;7.10;99.90
33994;DHT22;20673;48.980;8.138;2024-02-21T02:55:12;7.10;99.90
33994;DHT22;20673;48.980;8.138;2024-02-21T02:57:39;7.10;99.90
33994;DHT22;20673;48.980;8.138;2024-02-21T03:00:08;7.00;99.90
33994;DHT22;20673;48.980;8.138;2024-02-21T03:02:38;7.00;99.90
33994;DHT22;20673;48.980;8.138;2024-02-21T03:05:17;7.00;99.90
33994;DHT22;20673;48.980;8.138;2024-02-21T03:07:44;7.00;99.90
33994;DHT22;20673;48.980;8.138;2024-02-21T03:10:11;7.00;99.90
33994;DHT22;20673;48.980;8.138;2024-02-21T03:12:39;7.00;99.90
33994;DHT22;20673;48.980;8.138;2024-02-21T03:15:06;7.10;99.90
33994;DHT22;20673;48.980;8.138;2024-02-21T03:17:33;7.10;99.90
33994;DHT22;20673;48.980;8.138;2024-02-21T03:20:05;7.10;99.90
33994;DHT22;20673;48.980;8.138;2024-02-21T03:22:36;7.10;99.90
33994;DHT22;20673;48.980;8.138;2024-02-21T03:25:03;7.00;99.90
33994;DHT22;20673;48.980;8.138;2024-02-21T03:27:30;7.10;99.90
33994;DHT22;20673;48.980;8.138;2024-02-21T03:29:56;7.10;99.90
33994;DHT22;20673;48.980;8.138;2024-02-21T03:32:22;7.10;99.90
33994;DHT22;20673;48.980;8.138;2024-02-21T03:34:48;7.20;99.90
33994;DHT22;20673;48.980;8.138;2024-02-21T03:37:14;7.10;99.90
33994;DHT22;20673;48.980;8.138;2024-02-21T03:39:41;7.10;99.90
33994;DHT22;20673;48.980;8.138;2024-02-21T03:42:07;7.10;99.90
33994;DHT22;20673;48.980;8.138;2024-02-21T03:44:33;7.10;99.90
33994;DHT22;20673;48.980;8.138;2024-02-21T03:47:00;7.10;99.90
33994;DHT22;20673;48.980;8.138;2024-02-21T03:49:26;7.00;99.90
33994;DHT22;20673;48.980;8.138;2024-02-21T03:51:52;7.00;99.90
33994;DHT22;20673;48.980;8.138;2024-02-21T03:54:19;7.00;99.90
33994;DHT22;20673;48.980;8.138;2024-02-21T03:56:45;6.90;99.90
33994;DHT22;20673;48.980;8.138;2024-02-21T03:59:14;6.80;99.90
33994;DHT22;20673;48.980;8.138;2024-02-21T04:01:40;6.70;99.90
33994;DHT22;20673;48.980;8.138;2024-02-21T04:04:06;6.70;99.90
33994;DHT22;20673;48.980;8.138;2024-02-21T04:06:33;6.70;99.90
33994;DHT22;20673;48.980;8.138;2024-02-21T04:08:59;6.60;99.90
33994;DHT22;20673;48.980;8.138;2024-02-21T04:11:25;6.50;99.90
33994;DHT22;20673;48.980;8.138;2024-02-21T04:13:51;6.50;99.90
33994;DHT22;20673;48.980;8.138;2024-02-21T04:16:17;6.40;99.90
33994;DHT22;20673;48.980;8.138;2024-02-21T04:18:44;6.40;99.90
33994;DHT22;20673;48.980;8.138;2024-02-21T04:21:13;6.40;99.90
33994;DHT22;20673;48.980;8.138;2024-02-21T04:23:40;6.40;99.90
33994;DHT22;20673;48.980;8.138;2024-02-21T04:26:07;6.40;99.90
33994;DHT22;20673;48.980;8.138;2024-02-21T04:28:33;6.30;99.90
33994;DHT22;20673;48.980;8.138;2024-02-21T04:30:59;6.20;99.90
33994;DHT22;20673;48.980;8.138;2024-02-21T04:33:25;6.20;99.90
33994;DHT22;20673;48.980;8.138;2024-02-21T04:35:51;6.10;99.90
33994;DHT22;20673;48.980;8.138;2024-02-21T04:38:19;6.00;99.90
33994;DHT22;20673;48.980;8.138;2024-02-21T04:40:45;6.00;99.90
33994;DHT22;20673;48.980;8.138;2024-02-21T04:43:12;5.90;99.90
33994;DHT22;20673;48.980;8.138;2024-02-21T04:45:38;5.80;99.90
33994;DHT22;20673;48.980;8.138;2024-02-21T04:48:04;5.70;99.90
33994;DHT22;20673;48.980;8.138;2024-02-21T04:50:31;5.70;99.90
33994;DHT22;20673;48.980;8.138;2024-02-21T04:52:57;5.70;99.90
33994;DHT22;20673;48.980;8.138;2024-02-21T04:55:23;5.70;99.90
33994;DHT22;20673;48.980;8.138;2024-02-21T04:57:49;5.60;99.90
33994;DHT22;20673;48.980;8.138;2024-02-21T05:00:16;5.50;99.90
33994;DHT22;20673;48.980;8.138;2024-02-21T05:02:42;5.50;99.90
33994;DHT22;20673;48.980;8.138;2024-02-21T05:05:08;5.50;99.90
33994;DHT22;20673;48.980;8.138;2024-02-21T05:07:35;5.60;99.90
33994;DHT22;20673;48.980;8.138;2024-02-21T05:10:01;5.70;99.90
33994;DHT22;20673;48.980;8.138;2024-02-21T05:12:27;5.70;99.90
33994;DHT22;20673;48.980;8.138;2024-02-21T05:14:54;5.80;99.90
33994;DHT22;20673;48.980;8.138;2024-02-21T05:17:20;5.70;99.90
33994;DHT22;20673;48.980;8.138;2024-02-21T05:19:46;5.70;99.90
33994;DHT22;20673;48.980;8.138;2024-02-21T05:22:12;5.60;99.90
33994;DHT22;20673;48.980;8.138;2024-02-21T05:24:39;5.60;99.90
33994;DHT22;20673;48.980;8.138;2024-02-21T05:27:05;5.60;99.90
33994;DHT22;20673;48.980;8.138;2024-02-21T05:29:33;5.60;99.90
33994;DHT22;20673;48.980;8.138;2024-02-21T05:31:59;5.50;99.90
33994;DHT22;20673;48.980;8.138;2024-02-21T05:34:26;5.40;99.90
33994;DHT22;20673;48.980;8.138;2024-02-21T05:36:52;5.40;99.90
33994;DHT22;20673;48.980;8.138;2024-02-21T05:39:18;5.30;99.90
33994;DHT22;20673;48.980;8.138;2024-02-21T05:41:45;5.30;99.90
33994;DHT22;20673;48.980;8.138;2024-02-21T05:44:11;5.20;99.90
33994;DHT22;20673;48.980;8.138;2024-02-21T05:46:38;5.20;99.90
33994;DHT22;20673;48.980;8.138;2024-02-21T05:49:04;5.20;99.90
33994;DHT22;20673;48.980;8.138;2024-02-21T05:51:34;5.20;99.90
33994;DHT22;20673;48.980;8.138;2024-02-21T05:54:01;5.10;99.90
33994;DHT22;20673;48.980;8.138;2024-02-21T05:56:27;5.10;99.90
33994;DHT22;20673;48.980;8.138;2024-02-21T05:58:54;5.10;99.90
33994;DHT22;20673;48.980;8.138;2024-02-21T06:01:20;5.20;99.90
33994;DHT22;20673;48.980;8.138;2024-02-21T06:03:49;5.10;99.90
33994;DHT22;20673;48.980;8.138;2024-02-21T06:06:15;5.10;99.90
33994;DHT22;20673;48.980;8.138;2024-02-21T06:08:42;5.10;99.90
33994;DHT22;20673;48.980;8.138;2024-02-21T06:11:08;5.10;99.90
33994;DHT22;20673;48.980;8.138;2024-02-21T06:13:39;5.10;99.90
33994;DHT22;20673;48.980;8.138;2024-02-21T06:16:06;5.10;99.90
33994;DHT22;20673;48.980;8.138;2024-02-21T06:18:35;5.00;99.90
33994;DHT22;20673;48.980;8.138;2024-02-21T06:21:03;5.00;99.90
33994;DHT22;20673;48.980;8.138;2024-02-21T06:23:30;4.90;99.90
33994;DHT22;20673;48.980;8.138;2024-02-21T06:25:56;4.90;99.90
33994;DHT22;20673;48.980;8.138;2024-02-21T06:28:22;4.90;99.90
33994;DHT22;20673;48.980;8.138;2024-02-21T06:30:48;4.90;99.90
33994;DHT22;20673;48.980;8.138;2024-02-21T06:33:15;4.90;99.90
33994;DHT22;20673;48.980;8.138;2024-02-21T06:35:41;4.90;99.90
33994;DHT22;20673;48.980;8.138;2024-02-21T06:38:08;4.90;99.90
33994;DHT22;20673;48.980;8.138;2024-02-21T06:40:34;5.00;99.90
33994;DHT22;20673;48.980;8.138;2024-02-21T06:43:02;5.00;99.90
33994;DHT22;20673;48.980;8.138;2024-02-21T06:45:29;5.00;99.90
33994;DHT22;20673;48.980;8.138;2024-02-21T06:47:55;4.90;99.90
33994;DHT22;20673;48.980;8.138;2024-02-21T06:50:21;5.00;99.90
33994;DHT22;20673;48.980;8.138;2024-02-21T06:52:47;5.10;99.90
33994;DHT22;20673;48.980;8.138;2024-02-21T06:55:13;5.10;99.90
33994;DHT22;20673;48.980;8.138;2024-02-21T06:57:39;5.10;99.90
33994;DHT22;20673;48.980;8.138;2024-02-21T07:00:06;5.10;99.90
33994;DHT22;20673;48.980;8.138;2024-02-21T07:02:34;5.20;99.90
33994;DHT22;20673;48.980;8.138;2024-02-21T07:05:00;5.20;99.90
33994;DHT22;20673;48.980;8.138;2024-02-21T07:07:26;5.30;99.90
33994;DHT22;20673;48.980;8.138;2024-02-21T07:09:52;5.30;99.90
33994;DHT22;20673;48.980;8.138;2024-02-21T07:12:20;5.30;99.90
33994;DHT22;20673;48.980;8.138;2024-02-21T07:14:46;5.40;99.90
33994;DHT22;20673;48.980;8.138;2024-02-21T07:17:12;5.50;99.90
33994;DHT22;20673;48.980;8.138;2024-02-21T07:19:38;5.50;99.90
33994;DHT22;20673;48.980;8.138;2024-02-21T07:22:04;5.60;99.90
33994;DHT22;20673;48.980;8.138;2024-02-21T07:24:30;5.60;99.90
33994;DHT22;20673;48.980;8.138;2024-02-21T07:26:57;5.70;99.90
33994;DHT22;20673;48.980;8.138;2024-02-21T07:29:27;5.70;99.90
33994;DHT22;20673;48.980;8.138;2024-02-21T07:31:53;5.80;99.90
33994;DHT22;20673;48.980;8.138;2024-02-21T07:34:19;5.90;99.90
33994;DHT22;20673;48.980;8.138;2024-02-21T07:36:45;6.00;99.90
33994;DHT22;20673;48.980;8.138;2024-02-21T07:39:11;6.20;99.90
33994;DHT22;20673;48.980;8.138;2024-02-21T07:41:38;6.30;99.90
33994;DHT22;20673;48.980;8.138;2024-02-21T07:44:04;6.40;99.90
33994;DHT22;20673;48.980;8.138;2024-02-21T07:46:30;6.50;99.90
33994;DHT22;20673;48.980;8.138;2024-02-21T07:48:57;6.50;99.90
33994;DHT22;20673;48.980;8.138;2024-02-21T07:51:27;6.60;99.90
33994;DHT22;20673;48.980;8.138;2024-02-21T07:53:53;6.70;99.90
33994;DHT22;20673;48.980;8.138;2024-02-21T07:56:19;6.80;99.90
33994;DHT22;20673;48.980;8.138;2024-02-21T07:58:45;6.80;99.90
33994;DHT22;20673;48.980;8.138;2024-02-21T08:01:11;6.90;99.90
33994;DHT22;20673;48.980;8.138;2024-02-21T08:03:39;7.00;99.90
33994;DHT22;20673;48.980;8.138;2024-02-21T08:06:05;7.00;99.90
33994;DHT22;20673;48.980;8.138;2024-02-21T08:08:34;7.10;99.90
33994;DHT22;20673;48.980;8.138;2024-02-21T08:11:00;7.10;99.90
33994;DHT22;20673;48.980;8.138;2024-02-21T08:13:26;7.10;99.90
33994;DHT22;20673;48.980;8.138;2024-02-21T08:15:54;7.10;99.90
33994;DHT22;20673;48.980;8.138;2024-02-21T08:18:20;7.20;99.90
33994;DHT22;20673;48.980;8.138;2024-02-21T08:20:46;7.20;99.90
33994;DHT22;20673;48.980;8.138;2024-02-21T08:23:12;7.20;99.90
33994;DHT22;20673;48.980;8.138;2024-02-21T08:25:40;7.20;99.90
33994;DHT22;20673;48.980;8.138;2024-02-21T08:28:06;7.30;99.90
33994;DHT22;20673;48.980;8.138;2024-02-21T08:30:34;7.30;99.90
33994;DHT22;20673;48.980;8.138;2024-02-21T08:33:00;7.30;99.90
33994;DHT22;20673;48.980;8.138;2024-02-21T08:35:26;7.30;99.90
33994;DHT22;20673;48.980;8.138;2024-02-21T08:37:52;7.30;99.90
33994;DHT22;20673;48.980;8.138;2024-02-21T08:40:18;7.30;99.90
33994;DHT22;20673;48.980;8.138;2024-02-21T08:42:47;7.40;99.90
33994;DHT22;20673;48.980;8.138;2024-02-21T08:45:13;7.40;99.90
33994;DHT22;20673;48.980;8.138;2024-02-21T08:47:39;7.50;99.90
33994;DHT22;20673;48.980;8.138;2024-02-21T08:50:07;7.60;99.90
33994;DHT22;20673;48.980;8.138;2024-02-21T08:52:35;7.60;99.90
33994;DHT22;20673;48.980;8.138;2024-02-21T08:55:01;7.60;99.90
33994;DHT22;20673;48.980;8.138;2024-02-21T08:57:28;7.60;99.90
33994;DHT22;20673;48.980;8.138;2024-02-21T08:59:54;7.80;99.90
33994;DHT22;20673;48.980;8.138;2024-02-21T09:02:20;7.80;99.90
33994;DHT22;20673;48.980;8.138;2024-02-21T09:04:46;7.90;99.90
33994;DHT22;20673;48.980;8.138;2024-02-21T09:07:12;7.90;99.90
33994;DHT22;20673;48.980;8.138;2024-02-21T09:09:38;8.00;99.90
33994;DHT22;20673;48.980;8.138;2024-02-21T09:12:08;8.00;98.80
33994;DHT22;20673;48.980;8.138;2024-02-21T09:14:36;8.10;98.10
33994;DHT22;20673;48.980;8.138;2024-02-21T09:17:06;8.20;99.90
33994;DHT22;20673;48.980;8.138;2024-02-21T09:19:33;8.30;93.80
33994;DHT22;20673;48.980;8.138;2024-02-21T09:22:00;8.30;87.90
33994;DHT22;20673;48.980;8.138;2024-02-21T09:24:27;8.40;70.20
33994;DHT22;20673;48.980;8.138;2024-02-21T09:26:53;8.50;66.50
33994;DHT22;20673;48.980;8.138;2024-02-21T09:29:19;8.60;62.80
33994;DHT22;20673;48.980;8.138;2024-02-21T09:31:45;8.70;46.30
33994;DHT22;20673;48.980;8.138;2024-02-21T09:34:11;8.70;53.70
33994;DHT22;20673;48.980;8.138;2024-02-21T09:36:37;8.90;43.10
33994;DHT22;20673;48.980;8.138;2024-02-21T09:39:05;9.10;45.20
33994;DHT22;20673;48.980;8.138;2024-02-21T09:41:33;9.20;12.80
33994;DHT22;20673;48.980;8.138;2024-02-21T09:44:02;9.40;18.30
33994;DHT22;20673;48.980;8.138;2024-02-21T09:52:00;9.40;27.90
33994;DHT22;20673;48.980;8.138;2024-02-21T09:54:30;9.40;24.20
33994;DHT22;20673;48.980;8.138;2024-02-21T09:57:02;9.50;16.10
33994;DHT22;20673;48.980;8.138;2024-02-21T09:59:32;9.50;10.00
33994;DHT22;20673;48.980;8.138;2024-02-21T10:01:59;9.60;1.00
33994;DHT22;20673;48.980;8.138;2024-02-21T10:04:26;9.60;1.00
33994;DHT22;20673;48.980;8.138;2024-02-21T10:06:53;9.60;1.00
33994;DHT22;20673;48.980;8.138;2024-02-21T10:09:24;9.80;2.70
33994;DHT22;20673;48.980;8.138;2024-02-21T10:11:55;9.80;3.50
33994;DHT22;20673;48.980;8.138;2024-02-21T10:14:23;9.90;1.00
33994;DHT22;20673;48.980;8.138;2024-02-21T10:16:59;10.00;1.00
33994;DHT22;20673;48.980;8.138;2024-02-21T10:19:24;10.00;1.00
33994;DHT22;20673;48.980;8.138;2024-02-21T10:22:05;10.10;1.00
33994;DHT22;20673;48.980;8.138;2024-02-21T10:24:34;10.30;1.00
33994;DHT22;20673;48.980;8.138;2024-02-21T10:27:05;10.40;1.00
33994;DHT22;20673;48.980;8.138;2024-02-21T10:29:37;10.40;1.00
33994;DHT22;20673;48.980;8.138;2024-02-21T10:34:40;10.30;1.00
33994;DHT22;20673;48.980;8.138;2024-02-21T10:37:09;10.50;1.00
33994;DHT22;20673;48.980;8.138;2024-02-21T10:39:38;10.50;1.00
33994;DHT22;20673;48.980;8.138;2024-02-21T10:42:05;10.60;1.00
33994;DHT22;20673;48.980;8.138;2024-02-21T10:44:39;10.60;1.00
33994;DHT22;20673;48.980;8.138;2024-02-21T10:47:09;10.70;1.00
33994;DHT22;20673;48.980;8.138;2024-02-21T10:49:40;10.80;1.00
33994;DHT22;20673;48.980;8.138;2024-02-21T10:52:32;10.90;1.00
33994;DHT22;20673;48.980;8.138;2024-02-21T10:54:59;11.00;1.00
33994;DHT22;20673;48.980;8.138;2024-02-21T10:57:26;11.10;1.00
33994;DHT22;20673;48.980;8.138;2024-02-21T10:59:55;11.20;1.00
33994;DHT22;20673;48.980;8.138;2024-02-21T11:02:23;11.20;1.00
33994;DHT22;20673;48.980;8.138;2024-02-21T11:04:51;11.20;1.00
33994;DHT22;20673;48.980;8.138;2024-02-21T11:07:20;11.20;1.00
33994;DHT22;20673;48.980;8.138;2024-02-21T11:09:53;11.10;1.00
33994;DHT22;20673;48.980;8.138;2024-02-21T11:12:23;11.10;1.00
33994;DHT22;20673;48.980;8.138;2024-02-21T11:14:49;11.00;1.00
33994;DHT22;20673;48.980;8.138;2024-02-21T11:17:19;11.00;1.00
33994;DHT22;20673;48.980;8.138;2024-02-21T11:19:50;11.00;1.00
33994;DHT22;20673;48.980;8.138;2024-02-21T11:22:18;11.10;1.00
33994;DHT22;20673;48.980;8.138;2024-02-21T11:24:45;11.10;1.00
33994;DHT22;20673;48.980;8.138;2024-02-21T11:27:15;11.10;1.00
33994;DHT22;20673;48.980;8.138;2024-02-21T11:29:54;11.20;1.00
33994;DHT22;20673;48.980;8.138;2024-02-21T11:32:22;11.30;1.00
33994;DHT22;20673;48.980;8.138;2024-02-21T11:35:01;11.40;1.00
33994;DHT22;20673;48.980;8.138;2024-02-21T11:37:30;11.40;1.00
33994;DHT22;20673;48.980;8.138;2024-02-21T11:40:00;11.50;1.00
33994;DHT22;20673;48.980;8.138;2024-02-21T11:42:27;11.40;1.00
33994;DHT22;20673;48.980;8.138;2024-02-21T11:44:55;11.40;1.00
33994;DHT22;20673;48.980;8.138;2024-02-21T11:47:25;11.30;1.00
33994;DHT22;20673;48.980;8.138;2024-02-21T11:49:51;11.30;1.00
33994;DHT22;20673;48.980;8.138;2024-02-21T11:52:25;11.30;1.00
33994;DHT22;20673;48.980;8.138;2024-02-21T11:54:53;11.40;1.00
33994;DHT22;20673;48.980;8.138;2024-02-21T11:57:22;11.40;1.00
33994;DHT22;20673;48.980;8.138;2024-02-21T11:59:48;11.40;1.00
33994;DHT22;20673;48.980;8.138;2024-02-21T12:02:15;11.50;1.00
33994;DHT22;20673;48.980;8.138;2024-02-21T12:04:43;11.70;1.00
33994;DHT22;20673;48.980;8.138;2024-02-21T12:07:10;11.60;1.00
33994;DHT22;20673;48.980;8.138;2024-02-21T12:09:36;11.60;1.00
33994;DHT22;20673;48.980;8.138;2024-02-21T12:12:04;11.60;1.00
33994;DHT22;20673;48.980;8.138;2024-02-21T12:14:33;11.50;1.00
33994;DHT22;20673;48.980;8.138;2024-02-21T12:17:00;11.50;1.00
33994;DHT22;20673;48.980;8.138;2024-02-21T12:19:32;11.50;1.00
33994;DHT22;20673;48.980;8.138;2024-02-21T12:21:59;11.60;1.00
33994;DHT22;20673;48.980;8.138;2024-02-21T12:24:28;11.60;1.00
33994;DHT22;20673;48.980;8.138;2024-02-21T12:26:55;11.70;1.00
33994;DHT22;20673;48.980;8.138;2024-02-21T12:29:24;11.70;1.00
33994;DHT22;20673;48.980;8.138;2024-02-21T12:31:51;11.70;1.00
33994;DHT22;20673;48.980;8.138;2024-02-21T12:34:19;11.70;1.00
33994;DHT22;20673;48.980;8.138;2024-02-21T12:36:46;11.80;1.00
33994;DHT22;20673;48.980;8.138;2024-02-21T12:39:12;11.70;1.00
33994;DHT22;20673;48.980;8.138;2024-02-21T12:41:40;11.70;1.00
33994;DHT22;20673;48.980;8.138;2024-02-21T12:44:10;11.70;1.00
33994;DHT22;20673;48.980;8.138;2024-02-21T12:46:38;11.60;1.00
33994;DHT22;20673;48.980;8.138;2024-02-21T12:49:05;11.60;1.00
33994;DHT22;20673;48.980;8.138;2024-02-21T12:51:34;11.60;1.00
33994;DHT22;20673;48.980;8.138;2024-02-21T12:54:00;11.60;1.00
33994;DHT22;20673;48.980;8.138;2024-02-21T12:56:28;11.60;1.00
33994;DHT22;20673;48.980;8.138;2024-02-21T12:58:57;11.60;1.00
33994;DHT22;20673;48.980;8.138;2024-02-21T13:01:24;11.60;1.00
33994;DHT22;20673;48.980;8.138;2024-02-21T13:03:50;11.60;1.00
33994;DHT22;20673;48.980;8.138;2024-02-21T13:06:16;11.60;1.00
33994;DHT22;20673;48.980;8.138;2024-02-21T13:08:44;11.60;1.00
33994;DHT22;20673;48.980;8.138;2024-02-21T13:11:12;11.50;1.00
33994;DHT22;20673;48.980;8.138;2024-02-21T13:13:38;11.40;1.00
33994;DHT22;20673;48.980;8.138;2024-02-21T13:16:06;11.40;1.00
33994;DHT22;20673;48.980;8.138;2024-02-21T13:18:32;11.40;1.00
33994;DHT22;20673;48.980;8.138;2024-02-21T13:21:00;11.50;1.00
33994;DHT22;20673;48.980;8.138;2024-02-21T13:23:27;11.50;1.00
33994;DHT22;20673;48.980;8.138;2024-02-21T13:25:53;11.50;1.00
33994;DHT22;20673;48.980;8.138;2024-02-21T13:28:19;11.40;1.00
33994;DHT22;20673;48.980;8.138;2024-02-21T13:30:45;11.30;1.00
33994;DHT22;20673;48.980;8.138;2024-02-21T13:33:11;11.40;1.00
33994;DHT22;20673;48.980;8.138;2024-02-21T13:35:37;11.40;1.00
33994;DHT22;20673;48.980;8.138;2024-02-21T13:38:04;11.30;1.00
33994;DHT22;20673;48.980;8.138;2024-02-21T13:40:30;11.30;1.00
33994;DHT22;20673;48.980;8.138;2024-02-21T13:42:57;11.30;1.00
33994;DHT22;20673;48.980;8.138;2024-02-21T13:45:23;11.30;1.00
33994;DHT22;20673;48.980;8.138;2024-02-21T13:47:49;11.30;1.00
33994;DHT22;20673;48.980;8.138;2024-02-21T13:50:16;11.30;1.00
33994;DHT22;20673;48.980;8.138;2024-02-21T13:52:43;11.30;1.00
33994;DHT22;20673;48.980;8.138;2024-02-21T13:55:09;11.30;1.00
33994;DHT22;20673;48.980;8.138;2024-02-21T13:57:36;11.30;1.00
33994;DHT22;20673;48.980;8.138;2024-02-21T14:00:06;11.30;1.00
33994;DHT22;20673;48.980;8.138;2024-02-21T14:02:34;11.30;1.00
33994;DHT22;20673;48.980;8.138;2024-02-21T14:05:00;11.30;1.00
33994;DHT22;20673;48.980;8.138;2024-02-21T14:07:28;11.30;1.00
33994;DHT22;20673;48.980;8.138;2024-02-21T14:09:54;11.30;1.00
33994;DHT22;20673;48.980;8.138;2024-02-21T14:12:21;11.30;1.00
33994;DHT22;20673;48.980;8.138;2024-02-21T14:14:47;11.30;1.00
33994;DHT22;20673;48.980;8.138;2024-02-21T14:17:13;11.30;1.00
33994;DHT22;20673;48.980;8.138;2024-02-21T14:19:39;11.40;1.00
33994;DHT22;20673;48.980;8.138;2024-02-21T14:22:05;11.40;1.00
33994;DHT22;20673;48.980;8.138;2024-02-21T14:24:31;11.40;1.00
33994;DHT22;20673;48.980;8.138;2024-02-21T14:26:58;11.40;1.00
33994;DHT22;20673;48.980;8.138;2024-02-21T14:29:25;11.40;1.00
33994;DHT22;20673;48.980;8.138;2024-02-21T14:31:51;11.40;1.00
33994;DHT22;20673;48.980;8.138;2024-02-21T14:34:17;11.40;1.00
33994;DHT22;20673;48.980;8.138;2024-02-21T14:36:43;11.40;1.00
33994;DHT22;20673;48.980;8.138;2024-02-21T14:39:09;11.50;1.00
33994;DHT22;20673;48.980;8.138;2024-02-21T14:41:35;11.50;1.00
33994;DHT22;20673;48.980;8.138;2024-02-21T14:44:02;11.50;1.00
33994;DHT22;20673;48.980;8.138;2024-02-21T14:46:29;11.50;1.00
33994;DHT22;20673;48.980;8.138;2024-02-21T14:48:55;11.50;1.00
33994;DHT22;20673;48.980;8.138;2024-02-21T14:51:21;11.50;1.00
33994;DHT22;20673;48.980;8.138;2024-02-21T14:53:47;11.50;1.00
33994;DHT22;20673;48.980;8.138;2024-02-21T14:56:15;11.40;1.00
33994;DHT22;20673;48.980;8.138;2024-02-21T14:58:43;11.40;1.00
33994;DHT22;20673;48.980;8.138;2024-02-21T15:01:09;11.40;1.00
33994;DHT22;20673;48.980;8.138;2024-02-21T15:03:35;11.40;1.00
33994;DHT22;20673;48.980;8.138;2024-02-21T15:06:02;11.40;1.00
33994;DHT22;20673;48.980;8.138;2024-02-21T15:08:28;11.30;1.00
33994;DHT22;20673;48.980;8.138;2024-02-21T15:10:55;11.30;1.00
33994;DHT22;20673;48.980;8.138;2024-02-21T15:13:21;11.30;1.00
33994;DHT22;20673;48.980;8.138;2024-02-21T15:15:48;11.30;1.00
33994;DHT22;20673;48.980;8.138;2024-02-21T15:18:14;11.30;1.00
33994;DHT22;20673;48.980;8.138;2024-02-21T15:20:41;11.20;1.00
33994;DHT22;20673;48.980;8.138;2024-02-21T15:23:07;11.20;1.00
33994;DHT22;20673;48.980;8.138;2024-02-21T15:25:33;11.10;1.00
33994;DHT22;20673;48.980;8.138;2024-02-21T15:27:59;11.00;1.00
33994;DHT22;20673;48.980;8.138;2024-02-21T15:30:25;11.00;1.00
33994;DHT22;20673;48.980;8.138;2024-02-21T15:32:56;10.90;1.00
33994;DHT22;20673;48.980;8.138;2024-02-21T15:35:25;10.90;1.00
33994;DHT22;20673;48.980;8.138;2024-02-21T15:37:51;10.80;1.00
33994;DHT22;20673;48.980;8.138;2024-02-21T15:40:17;10.80;1.00
33994;DHT22;20673;48.980;8.138;2024-02-21T15:42:43;11.00;1.00
33994;DHT22;20673;48.980;8.138;2024-02-21T15:45:10;11.00;1.00
33994;DHT22;20673;48.980;8.138;2024-02-21T15:47:36;11.00;1.00
33994;DHT22;20673;48.980;8.138;2024-02-21T15:50:03;11.00;1.00
33994;DHT22;20673;48.980;8.138;2024-02-21T15:52:29;11.00;1.00
33994;DHT22;20673;48.980;8.138;2024-02-21T15:54:55;11.10;1.00